Time;durP1;ratioP1;P1;durP2;ratioP2;P2;SDS_P1;SDS_P2;PMS_P1;PMS_P2;Temp;Humidity;BMP_temperature;BMP_pressure;BME280_temperature;BME280_humidity;BME280_pressure;Samples;Min_cycle;Max_cycle;Signal;HPM_P1;HPM_P2
2023/12/17 00:01:06;;;;;;;17.03;13.87;;;9.30;99.90;;;;;;5055270;28;20442;-62
2023/12/17 00:03:33;;;;;;;17.02;12.70;;;9.30;99.90;;;;;;5055583;28;20427;-62
2023/12/17 00:06:00;;;;;;;18.80;14.52;;;9.30;99.90;;;;;;5056900;28;20220;-62
2023/12/17 00:08:27;;;;;;;18.53;13.83;;;9.30;99.90;;;;;;5056940;28;20667;-63
2023/12/17 00:10:55;;;;;;;17.17;14.52;;;9.40;99.90;;;;;;5056402;28;21028;-63
2023/12/17 00:13:22;;;;;;;20.40;13.87;;;9.30;99.90;;;;;;5055393;28;20210;-63
2023/12/17 00:15:49;;;;;;;20.40;15.32;;;9.30;99.90;;;;;;5058116;28;20444;-63
2023/12/17 00:18:15;;;;;;;19.05;15.60;;;9.30;99.90;;;;;;5058377;28;20563;-63
2023/12/17 00:20:42;;;;;;;17.00;13.90;;;9.40;99.90;;;;;;5057518;28;20284;-63
2023/12/17 00:23:09;;;;;;;16.38;13.00;;;9.30;99.90;;;;;;5057607;28;20228;-63
2023/12/17 00:25:36;;;;;;;23.27;14.80;;;9.30;99.90;;;;;;5053831;28;20197;-61
2023/12/17 00:28:04;;;;;;;16.48;14.18;;;9.40;99.90;;;;;;5054355;28;20766;-62
2023/12/17 00:30:30;;;;;;;19.23;15.63;;;9.30;99.90;;;;;;5057252;28;20575;-62
2023/12/17 00:32:57;;;;;;;17.73;14.00;;;9.30;99.90;;;;;;5056821;28;20818;-62
2023/12/17 00:35:24;;;;;;;19.08;14.18;;;9.30;99.90;;;;;;5057293;28;20467;-62
2023/12/17 00:37:51;;;;;;;19.40;15.50;;;9.30;99.90;;;;;;5056978;28;20334;-61
2023/12/17 00:40:18;;;;;;;17.93;13.20;;;9.30;99.90;;;;;;5056824;28;20444;-63
2023/12/17 00:42:45;;;;;;;18.52;14.55;;;9.30;99.90;;;;;;5056977;28;20499;-61
2023/12/17 00:45:13;;;;;;;16.00;13.20;;;9.30;99.90;;;;;;5057440;28;20203;-63
2023/12/17 00:47:40;;;;;;;17.17;13.57;;;9.30;99.90;;;;;;5058398;28;20436;-62
2023/12/17 00:50:07;;;;;;;16.87;12.77;;;9.30;99.90;;;;;;5057513;28;20205;-61
2023/12/17 00:52:34;;;;;;;15.07;11.93;;;9.30;99.90;;;;;;5057104;28;20459;-62
2023/12/17 00:55:01;;;;;;;12.67;10.80;;;9.30;99.90;;;;;;5057091;28;20451;-63
2023/12/17 00:57:28;;;;;;;14.87;11.80;;;9.30;99.90;;;;;;5056867;28;20537;-62
2023/12/17 00:59:55;;;;;;;14.07;11.52;;;9.30;99.90;;;;;;5056822;28;20480;-62
2023/12/17 01:02:23;;;;;;;14.65;11.57;;;9.30;99.90;;;;;;5056177;28;20240;-63
2023/12/17 01:04:50;;;;;;;13.60;10.82;;;9.30;99.90;;;;;;5056893;28;20293;-62
2023/12/17 01:07:16;;;;;;;12.75;10.15;;;9.30;99.90;;;;;;5056388;28;20200;-62
2023/12/17 01:09:43;;;;;;;12.60;10.93;;;9.40;99.90;;;;;;5056217;28;20206;-63
2023/12/17 01:12:10;;;;;;;12.52;10.23;;;9.40;99.90;;;;;;5055955;28;20222;-62
2023/12/17 01:14:37;;;;;;;13.40;10.13;;;9.40;99.90;;;;;;5056035;28;20201;-61
2023/12/17 01:17:04;;;;;;;12.60;8.77;;;9.40;99.90;;;;;;5055915;28;20447;-62
2023/12/17 01:19:35;;;;;;;10.50;8.32;;;9.40;99.90;;;;;;5056174;28;20240;-63
2023/12/17 01:22:02;;;;;;;13.18;9.15;;;9.40;99.90;;;;;;5056085;28;20324;-62
2023/12/17 01:24:29;;;;;;;10.02;9.02;;;9.40;99.90;;;;;;5055961;28;20204;-62
2023/12/17 01:26:56;;;;;;;10.03;8.20;;;9.40;99.90;;;;;;5057074;28;20208;-63
2023/12/17 01:29:23;;;;;;;12.30;9.10;;;9.40;99.90;;;;;;5057000;28;20444;-63
2023/12/17 01:31:50;;;;;;;9.75;8.23;;;9.40;99.90;;;;;;5056514;28;20491;-62
2023/12/17 01:34:16;;;;;;;8.80;7.45;;;9.40;99.90;;;;;;5056247;28;20273;-63
2023/12/17 01:36:45;;;;;;;10.18;7.63;;;9.40;99.90;;;;;;5055719;28;20259;-63
2023/12/17 01:39:11;;;;;;;10.57;8.13;;;9.40;99.90;;;;;;5055278;28;20700;-62
2023/12/17 01:41:38;;;;;;;10.00;7.72;;;9.40;99.90;;;;;;5055818;28;20233;-62
2023/12/17 01:44:05;;;;;;;10.52;8.70;;;9.30;99.90;;;;;;5055902;28;20198;-62
2023/12/17 01:46:32;;;;;;;8.30;7.47;;;9.40;99.90;;;;;;5056131;28;20204;-62
2023/12/17 01:49:00;;;;;;;10.20;7.47;;;9.30;99.90;;;;;;5055654;28;20197;-62
2023/12/17 01:51:28;;;;;;;7.93;7.13;;;9.40;99.90;;;;;;5055460;28;20460;-62
2023/12/17 01:53:56;;;;;;;8.47;7.10;;;9.40;99.90;;;;;;5056025;28;20436;-64
2023/12/17 01:56:23;;;;;;;9.40;7.45;;;9.40;99.90;;;;;;5055623;28;20443;-61
2023/12/17 01:58:50;;;;;;;9.80;7.23;;;9.40;99.90;;;;;;5058369;28;20217;-62
2023/12/17 02:01:17;;;;;;;8.03;6.50;;;9.40;99.90;;;;;;5062425;28;20480;-61
2023/12/17 02:03:44;;;;;;;7.40;6.57;;;9.40;99.90;;;;;;5061381;28;20801;-62
2023/12/17 02:06:11;;;;;;;7.50;6.77;;;9.40;99.90;;;;;;5061844;28;20204;-62
2023/12/17 02:08:38;;;;;;;8.03;6.60;;;9.40;99.90;;;;;;5060901;28;20440;-63
2023/12/17 02:11:06;;;;;;;10.27;6.23;;;9.40;99.90;;;;;;5059309;28;20811;-62
2023/12/17 02:13:32;;;;;;;8.50;7.07;;;9.40;99.90;;;;;;5055162;28;20440;-62
2023/12/17 02:15:59;;;;;;;8.43;6.90;;;9.50;99.90;;;;;;5055030;28;20467;-62
2023/12/17 02:18:26;;;;;;;7.25;5.90;;;9.50;99.90;;;;;;5054967;28;20217;-62
2023/12/17 02:20:53;;;;;;;7.43;6.57;;;9.50;99.90;;;;;;5054634;28;20194;-63
2023/12/17 02:23:22;;;;;;;7.17;6.00;;;9.50;99.90;;;;;;5054555;28;20970;-62
2023/12/17 02:25:49;;;;;;;6.50;5.63;;;9.50;99.90;;;;;;5054717;28;20436;-63
2023/12/17 02:28:15;;;;;;;7.73;6.33;;;9.50;99.90;;;;;;5054669;28;20443;-62
2023/12/17 02:30:42;;;;;;;7.20;6.30;;;9.50;99.90;;;;;;5054697;28;20453;-62
2023/12/17 02:33:09;;;;;;;8.10;6.13;;;9.50;99.90;;;;;;5054353;28;20456;-61
2023/12/17 02:35:36;;;;;;;5.95;5.28;;;9.50;99.90;;;;;;5054465;28;20448;-62
2023/12/17 02:38:02;;;;;;;7.30;6.18;;;9.50;99.90;;;;;;5054425;28;20559;-63
2023/12/17 02:40:30;;;;;;;6.55;5.75;;;9.50;99.90;;;;;;5054371;28;20202;-62
2023/12/17 02:42:58;;;;;;;7.55;6.13;;;9.50;99.90;;;;;;5054398;28;20217;-63
2023/12/17 02:45:25;;;;;;;7.22;5.53;;;9.50;99.90;;;;;;5054387;28;20212;-62
2023/12/17 02:47:52;;;;;;;7.50;6.03;;;9.50;99.90;;;;;;5054320;28;20205;-61
2023/12/17 02:50:18;;;;;;;8.35;6.57;;;9.50;99.90;;;;;;5054353;28;20497;-63
2023/12/17 02:52:45;;;;;;;7.95;7.15;;;9.50;99.90;;;;;;5053209;28;20222;-62
2023/12/17 02:55:12;;;;;;;8.98;6.78;;;9.50;99.90;;;;;;5054318;28;20220;-62
2023/12/17 02:57:40;;;;;;;6.60;5.90;;;9.50;99.90;;;;;;5053850;28;20694;-63
2023/12/17 03:00:08;;;;;;;8.30;7.50;;;9.50;99.90;;;;;;5053711;28;20938;-62
2023/12/17 03:02:35;;;;;;;9.02;7.60;;;9.50;99.90;;;;;;5053950;28;20472;-61
2023/12/17 03:05:01;;;;;;;7.60;6.73;;;9.50;99.90;;;;;;5053986;28;20216;-61
2023/12/17 03:07:29;;;;;;;8.98;6.43;;;9.50;99.90;;;;;;5053745;28;20440;-62
2023/12/17 03:09:56;;;;;;;6.97;6.27;;;9.60;99.90;;;;;;5053394;28;20676;-61
2023/12/17 03:12:23;;;;;;;7.28;6.55;;;9.50;99.90;;;;;;5054098;28;20490;-62
2023/12/17 03:14:51;;;;;;;9.40;7.07;;;9.50;99.90;;;;;;5053656;28;20362;-62
2023/12/17 03:17:18;;;;;;;7.67;6.73;;;9.50;99.90;;;;;;5053494;28;20436;-62
2023/12/17 03:19:45;;;;;;;9.18;6.60;;;9.60;99.90;;;;;;5054265;28;20488;-62
2023/12/17 03:22:11;;;;;;;10.57;8.27;;;9.60;99.90;;;;;;5053576;28;20217;-62
2023/12/17 03:24:38;;;;;;;7.90;7.03;;;9.60;99.90;;;;;;5053640;28;20197;-61
2023/12/17 03:27:05;;;;;;;7.60;6.70;;;9.60;99.90;;;;;;5053537;28;20201;-61
2023/12/17 03:29:32;;;;;;;7.97;6.33;;;9.60;99.90;;;;;;5053358;28;20876;-62
2023/12/17 03:32:02;;;;;;;8.63;7.27;;;9.50;99.90;;;;;;5053063;28;20470;-62
2023/12/17 03:34:29;;;;;;;8.13;7.00;;;9.60;99.90;;;;;;5054360;28;20433;-61
2023/12/17 03:36:56;;;;;;;8.80;7.90;;;9.60;99.90;;;;;;5053269;28;20444;-62
2023/12/17 03:39:22;;;;;;;9.00;7.40;;;9.60;99.90;;;;;;5053881;28;20472;-62
2023/12/17 03:41:49;;;;;;;8.53;7.30;;;9.50;99.90;;;;;;5053005;28;20675;-62
2023/12/17 03:44:16;;;;;;;7.37;6.63;;;9.60;99.90;;;;;;5053146;28;20435;-62
2023/12/17 03:46:43;;;;;;;8.30;7.40;;;9.60;99.90;;;;;;5053087;28;20447;-63
2023/12/17 03:49:11;;;;;;;9.03;7.07;;;9.50;99.90;;;;;;5053074;28;20432;-62
2023/12/17 03:51:38;;;;;;;7.73;6.77;;;9.60;99.90;;;;;;5055041;28;20460;-62
2023/12/17 03:54:05;;;;;;;8.13;6.80;;;9.60;99.90;;;;;;5056455;28;20443;-62
2023/12/17 03:56:32;;;;;;;8.93;7.13;;;9.60;99.90;;;;;;5052918;28;20793;-63
2023/12/17 03:58:58;;;;;;;8.70;7.23;;;9.60;99.90;;;;;;5052939;28;20502;-61
2023/12/17 04:01:25;;;;;;;7.90;6.80;;;9.60;99.90;;;;;;5052755;28;20498;-61
2023/12/17 04:03:52;;;;;;;8.87;7.40;;;9.60;99.90;;;;;;5052230;28;20920;-61
2023/12/17 04:06:20;;;;;;;8.93;8.00;;;9.60;99.90;;;;;;5052827;28;20445;-62
2023/12/17 04:08:47;;;;;;;9.77;7.40;;;9.60;99.90;;;;;;5052771;28;20448;-61
2023/12/17 04:12:45;;;;;;;9.05;7.88;;;9.60;99.90;;;;;;5099803;27;1242061;-63
2023/12/17 04:15:11;;;;;;;10.07;8.17;;;9.60;99.90;;;;;;5136423;28;20203;-64
2023/12/17 04:17:38;;;;;;;9.80;7.00;;;9.60;99.90;;;;;;5131359;28;20529;-63
2023/12/17 04:20:06;;;;;;;10.83;8.07;;;9.60;99.90;;;;;;5131377;28;20436;-64
2023/12/17 04:22:33;;;;;;;10.73;8.23;;;9.60;99.90;;;;;;5131234;27;20448;-64
2023/12/17 04:24:59;;;;;;;10.63;7.43;;;9.60;99.90;;;;;;5131303;28;20455;-63
2023/12/17 04:27:26;;;;;;;11.57;8.40;;;9.60;99.90;;;;;;5131627;28;20436;-63
2023/12/17 04:29:54;;;;;;;8.60;7.57;;;9.60;99.90;;;;;;5130454;28;20456;-64
2023/12/17 04:32:21;;;;;;;8.50;7.57;;;9.60;99.90;;;;;;5130823;27;20484;-64
2023/12/17 04:34:48;;;;;;;8.60;7.23;;;9.60;99.90;;;;;;5131750;28;20432;-62
2023/12/17 04:37:15;;;;;;;9.43;8.07;;;9.60;99.90;;;;;;5131719;28;20509;-63
2023/12/17 04:39:42;;;;;;;8.93;7.90;;;9.60;99.90;;;;;;5132019;28;20437;-63
2023/12/17 04:42:09;;;;;;;10.90;8.23;;;9.60;99.90;;;;;;5133376;27;20463;-63
2023/12/17 04:44:35;;;;;;;7.77;6.97;;;9.60;99.90;;;;;;5141567;28;20443;-63
2023/12/17 04:47:04;;;;;;;9.10;7.33;;;9.60;99.90;;;;;;5135153;28;20445;-63
2023/12/17 04:49:31;;;;;;;8.83;7.20;;;9.60;99.90;;;;;;5130643;28;20477;-63
2023/12/17 04:51:57;;;;;;;6.93;6.27;;;9.60;99.90;;;;;;5130540;27;20482;-64
2023/12/17 04:54:25;;;;;;;9.40;8.00;;;9.60;99.90;;;;;;5130496;28;20450;-64
2023/12/17 04:56:54;;;;;;;8.83;7.00;;;9.60;99.90;;;;;;5130143;28;20478;-63
2023/12/17 04:59:21;;;;;;;9.27;8.17;;;9.60;99.90;;;;;;5130065;28;20488;-63
2023/12/17 05:01:48;;;;;;;8.67;7.30;;;9.60;99.90;;;;;;5136814;22;20493;-64
2023/12/17 05:04:17;;;;;;;8.87;7.10;;;9.60;99.90;;;;;;5089513;28;20846;-64
2023/12/17 05:06:44;;;;;;;8.60;7.40;;;9.60;99.90;;;;;;5089884;28;20434;-64
2023/12/17 05:09:10;;;;;;;9.63;7.40;;;9.60;99.90;;;;;;5089640;28;20435;-64
2023/12/17 05:11:37;;;;;;;8.50;7.40;;;9.60;99.90;;;;;;5089757;28;20481;-64
2023/12/17 05:14:04;;;;;;;8.53;7.67;;;9.60;99.90;;;;;;5090098;28;20438;-64
2023/12/17 05:16:31;;;;;;;10.15;7.18;;;9.60;99.90;;;;;;5089826;28;20446;-64
2023/12/17 05:18:57;;;;;;;8.90;8.00;;;9.60;99.90;;;;;;5089451;28;20204;-64
2023/12/17 05:21:25;;;;;;;11.40;8.10;;;9.60;99.90;;;;;;5089454;28;20465;-65
2023/12/17 05:23:52;;;;;;;8.90;7.32;;;9.60;99.90;;;;;;5077313;28;20453;-64
2023/12/17 05:26:19;;;;;;;8.30;7.40;;;9.60;99.90;;;;;;5076014;28;20196;-64
2023/12/17 05:28:46;;;;;;;9.55;8.30;;;9.50;99.90;;;;;;5075562;28;20502;-65
2023/12/17 05:31:12;;;;;;;10.53;8.60;;;9.60;99.90;;;;;;5075468;28;20687;-64
2023/12/17 05:33:39;;;;;;;9.23;7.70;;;9.60;99.90;;;;;;5075646;28;20941;-64
2023/12/17 05:36:07;;;;;;;10.70;8.48;;;9.60;99.90;;;;;;5075521;28;20446;-64
2023/12/17 05:38:35;;;;;;;9.43;8.40;;;9.60;99.90;;;;;;5075709;28;20204;-64
2023/12/17 05:41:02;;;;;;;10.37;8.33;;;9.50;99.90;;;;;;5076022;28;20466;-65
2023/12/17 05:43:28;;;;;;;10.13;9.00;;;9.50;99.90;;;;;;5075918;28;20452;-64
2023/12/17 05:45:55;;;;;;;11.27;8.47;;;9.50;99.90;;;;;;5075881;28;20440;-65
2023/12/17 05:48:22;;;;;;;9.67;8.03;;;9.50;99.90;;;;;;5075504;28;20497;-64
2023/12/17 05:50:49;;;;;;;9.90;8.90;;;9.50;99.90;;;;;;5075530;28;21051;-65
2023/12/17 05:53:16;;;;;;;9.60;8.60;;;9.60;99.90;;;;;;5076561;28;20451;-65
2023/12/17 05:55:44;;;;;;;11.80;9.30;;;9.50;99.90;;;;;;5075614;28;20443;-64
2023/12/17 05:58:11;;;;;;;10.80;8.23;;;9.50;99.90;;;;;;5075794;28;20440;-64
2023/12/17 06:00:38;;;;;;;10.17;9.07;;;9.60;99.90;;;;;;5075751;28;20435;-64
2023/12/17 06:03:04;;;;;;;9.30;7.90;;;9.50;99.90;;;;;;5075331;28;20446;-64
2023/12/17 06:05:31;;;;;;;9.10;8.20;;;9.50;99.90;;;;;;5075038;28;20443;-64
2023/12/17 06:07:58;;;;;;;9.73;8.73;;;9.60;99.90;;;;;;5075307;28;20205;-63
2023/12/17 06:10:25;;;;;;;11.30;9.07;;;9.50;99.90;;;;;;5075266;28;20203;-64
2023/12/17 06:12:53;;;;;;;9.10;8.13;;;9.50;99.90;;;;;;5075027;28;20479;-64
2023/12/17 06:15:20;;;;;;;10.65;9.15;;;9.50;99.90;;;;;;5075332;28;20440;-64
2023/12/17 06:17:47;;;;;;;9.73;8.00;;;9.50;99.90;;;;;;5075446;28;20207;-64
2023/12/17 06:20:14;;;;;;;9.77;8.63;;;9.50;99.90;;;;;;5075544;28;20436;-64
2023/12/17 06:22:41;;;;;;;9.60;8.20;;;9.50;99.90;;;;;;5074838;28;20999;-63
2023/12/17 06:25:08;;;;;;;9.30;8.32;;;9.50;99.90;;;;;;5075038;28;20443;-65
2023/12/17 06:27:36;;;;;;;9.83;8.73;;;9.50;99.90;;;;;;5074587;28;20667;-64
2023/12/17 06:30:05;;;;;;;10.30;9.18;;;9.50;99.90;;;;;;5074887;28;20470;-64
2023/12/17 06:32:32;;;;;;;13.00;9.97;;;9.50;99.90;;;;;;5074697;28;20224;-61
2023/12/17 06:34:59;;;;;;;10.80;9.77;;;9.50;99.90;;;;;;5073462;28;20970;-64
2023/12/17 06:37:26;;;;;;;12.03;10.00;;;9.50;99.90;;;;;;5074269;28;20449;-64
2023/12/17 06:39:52;;;;;;;12.10;9.67;;;9.50;99.90;;;;;;5074295;28;20445;-64
2023/12/17 06:42:19;;;;;;;11.02;9.88;;;9.50;99.90;;;;;;5074517;28;20461;-65
2023/12/17 06:44:46;;;;;;;10.70;9.30;;;9.50;99.90;;;;;;5074412;28;20207;-64
2023/12/17 06:47:15;;;;;;;13.80;10.60;;;9.50;99.90;;;;;;5074603;28;20450;-64
2023/12/17 06:49:42;;;;;;;12.07;10.75;;;9.50;99.90;;;;;;5075702;28;20444;-64
2023/12/17 06:52:09;;;;;;;14.17;10.87;;;9.50;99.90;;;;;;5077005;28;20231;-65
2023/12/17 06:54:36;;;;;;;11.60;10.35;;;9.50;99.90;;;;;;5075906;28;20446;-64
2023/12/17 06:57:03;;;;;;;18.37;12.63;;;9.50;99.90;;;;;;5075147;28;20569;-65
2023/12/17 06:59:29;;;;;;;12.35;10.57;;;9.50;99.90;;;;;;5074468;28;20439;-63
2023/12/17 07:01:56;;;;;;;13.30;10.50;;;9.50;99.90;;;;;;5073944;28;20235;-63
2023/12/17 07:04:24;;;;;;;14.15;11.10;;;9.50;99.90;;;;;;5074208;28;20435;-65
2023/12/17 07:06:51;;;;;;;14.00;9.63;;;9.50;99.90;;;;;;5074241;28;20215;-65
2023/12/17 07:09:18;;;;;;;12.60;10.90;;;9.40;99.90;;;;;;5074307;28;20439;-64
2023/12/17 07:11:44;;;;;;;16.00;12.07;;;9.40;99.90;;;;;;5073983;28;20221;-64
2023/12/17 07:14:11;;;;;;;15.57;12.70;;;9.40;99.90;;;;;;5073827;28;20211;-65
2023/12/17 07:16:38;;;;;;;14.90;12.00;;;9.40;99.90;;;;;;5074133;28;20439;-64
2023/12/17 07:19:05;;;;;;;13.77;11.80;;;9.40;99.90;;;;;;5073940;28;20301;-64
2023/12/17 07:21:33;;;;;;;15.47;11.67;;;9.40;99.90;;;;;;5074434;28;20463;-65
2023/12/17 07:23:59;;;;;;;16.50;13.02;;;9.40;99.90;;;;;;5074044;28;20501;-64
2023/12/17 07:26:26;;;;;;;16.40;13.38;;;9.40;99.90;;;;;;5074083;28;20201;-65
2023/12/17 07:28:53;;;;;;;15.40;12.90;;;9.40;99.90;;;;;;5074132;28;20207;-64
2023/12/17 07:31:20;;;;;;;16.92;13.07;;;9.40;99.90;;;;;;5074176;28;20460;-64
2023/12/17 07:33:47;;;;;;;16.55;13.10;;;9.40;99.90;;;;;;5073746;28;20197;-65
2023/12/17 07:36:14;;;;;;;18.27;14.07;;;9.40;99.90;;;;;;5073816;28;20201;-64
2023/12/17 07:38:42;;;;;;;15.80;12.20;;;9.40;99.90;;;;;;5074054;28;20468;-64
2023/12/17 07:41:08;;;;;;;15.15;13.07;;;9.40;99.90;;;;;;5074227;28;20455;-64
2023/12/17 07:43:35;;;;;;;15.33;12.87;;;9.40;99.90;;;;;;5074045;28;20203;-65
2023/12/17 07:46:02;;;;;;;15.45;10.88;;;9.40;99.90;;;;;;5073405;28;20442;-64
2023/12/17 07:48:29;;;;;;;14.10;11.90;;;9.40;99.90;;;;;;5073881;28;20205;-64
2023/12/17 07:50:56;;;;;;;14.80;13.00;;;9.40;99.90;;;;;;5074314;28;20439;-65
2023/12/17 07:53:23;;;;;;;14.50;12.10;;;9.40;99.90;;;;;;5073520;28;20848;-63
2023/12/17 07:55:56;;;;;;;16.37;12.20;;;9.40;99.90;;;;;;5073473;28;20937;-64
2023/12/17 07:58:23;;;;;;;14.00;11.37;;;9.40;99.90;;;;;;5073599;28;20921;-63
2023/12/17 08:00:50;;;;;;;13.50;11.97;;;9.40;99.90;;;;;;5073586;28;20913;-63
2023/12/17 08:03:17;;;;;;;13.00;11.00;;;9.40;99.90;;;;;;5074487;28;20427;-64
2023/12/17 08:05:44;;;;;;;13.43;12.00;;;9.40;99.90;;;;;;5073414;28;20439;-65
2023/12/17 08:08:11;;;;;;;15.27;12.27;;;9.40;99.90;;;;;;5074023;28;20207;-64
2023/12/17 08:10:38;;;;;;;13.17;11.50;;;9.40;99.90;;;;;;5073483;28;20443;-64
2023/12/17 08:13:06;;;;;;;14.53;12.63;;;9.50;99.90;;;;;;5073375;28;20487;-64
2023/12/17 08:15:32;;;;;;;12.57;11.20;;;9.50;99.90;;;;;;5072820;28;20787;-64
2023/12/17 08:17:59;;;;;;;15.77;12.30;;;9.50;99.90;;;;;;5072774;28;20937;-63
2023/12/17 08:20:26;;;;;;;16.67;12.70;;;9.50;99.90;;;;;;5073695;28;20933;-64
2023/12/17 08:22:53;;;;;;;14.90;12.47;;;9.50;99.90;;;;;;5072944;28;20456;-65
2023/12/17 08:25:20;;;;;;;13.63;11.40;;;9.50;99.90;;;;;;5072974;28;20439;-64
2023/12/17 08:27:47;;;;;;;13.30;10.60;;;9.50;99.90;;;;;;5072522;28;20445;-64
2023/12/17 08:30:17;;;;;;;14.97;11.10;;;9.50;99.90;;;;;;5072590;28;20579;-65
2023/12/17 08:32:45;;;;;;;14.30;11.50;;;9.50;99.90;;;;;;5072887;28;20514;-64
2023/12/17 08:35:12;;;;;;;13.13;11.00;;;9.50;99.90;;;;;;5072857;28;20446;-64
2023/12/17 08:37:39;;;;;;;13.00;10.67;;;9.50;99.90;;;;;;5072924;28;20440;-65
2023/12/17 08:40:06;;;;;;;12.93;11.53;;;9.60;99.90;;;;;;5072840;28;20438;-64
2023/12/17 08:42:33;;;;;;;14.33;11.37;;;9.50;99.90;;;;;;5073228;28;20462;-64
2023/12/17 08:45:00;;;;;;;13.50;11.57;;;9.50;99.90;;;;;;5072603;28;20442;-63
2023/12/17 08:47:28;;;;;;;14.70;12.27;;;9.60;99.90;;;;;;5072600;28;20443;-65
2023/12/17 08:49:56;;;;;;;12.70;11.40;;;9.60;99.90;;;;;;5072781;28;20478;-64
2023/12/17 08:52:23;;;;;;;14.67;12.23;;;9.60;99.90;;;;;;5072704;28;20570;-63
2023/12/17 08:54:49;;;;;;;14.03;11.60;;;9.60;99.90;;;;;;5072816;28;20443;-64
2023/12/17 08:57:17;;;;;;;13.87;11.90;;;9.60;99.90;;;;;;5072822;28;20443;-63
2023/12/17 08:59:44;;;;;;;12.97;11.53;;;9.60;99.90;;;;;;5076799;28;20443;-64
2023/12/17 09:02:11;;;;;;;14.77;12.17;;;9.60;99.90;;;;;;5076191;28;20471;-64
2023/12/17 09:04:39;;;;;;;13.23;11.00;;;9.60;99.90;;;;;;5076525;28;20439;-64
2023/12/17 09:07:05;;;;;;;15.43;11.63;;;9.60;99.90;;;;;;5076523;28;20937;-64
2023/12/17 09:09:32;;;;;;;15.30;11.50;;;9.60;99.90;;;;;;5076294;28;20435;-65
2023/12/17 09:11:59;;;;;;;14.10;11.43;;;9.70;99.90;;;;;;5076660;28;20463;-64
2023/12/17 09:14:26;;;;;;;13.43;11.37;;;9.70;99.90;;;;;;5079259;28;20531;-64
2023/12/17 09:16:53;;;;;;;13.52;11.15;;;9.70;99.90;;;;;;5079778;28;20443;-65
2023/12/17 09:19:20;;;;;;;14.77;12.27;;;9.80;99.90;;;;;;5077002;28;20204;-65
2023/12/17 09:21:48;;;;;;;14.80;11.95;;;9.80;99.90;;;;;;5076677;28;20470;-65
2023/12/17 09:24:14;;;;;;;14.30;10.77;;;9.90;99.90;;;;;;5076755;28;20193;-64
2023/12/17 09:26:41;;;;;;;15.40;11.60;;;9.90;99.90;;;;;;5076246;28;20445;-65
2023/12/17 09:29:08;;;;;;;13.97;11.70;;;10.00;99.90;;;;;;5076194;28;20445;-66
2023/12/17 09:31:35;;;;;;;14.10;11.60;;;10.00;99.90;;;;;;5076094;28;20463;-64
2023/12/17 09:34:02;;;;;;;14.70;10.77;;;10.00;99.90;;;;;;5076668;28;20483;-65
2023/12/17 09:36:28;;;;;;;13.33;11.30;;;10.10;99.90;;;;;;5076467;28;20450;-64
2023/12/17 09:38:56;;;;;;;13.90;11.17;;;10.10;99.90;;;;;;5076849;28;20443;-65
2023/12/17 09:41:23;;;;;;;13.60;10.63;;;10.10;99.90;;;;;;5075861;28;20460;-64
2023/12/17 09:43:50;;;;;;;13.30;10.67;;;10.20;99.90;;;;;;5076052;28;20442;-65
2023/12/17 09:46:18;;;;;;;13.53;11.30;;;10.20;99.90;;;;;;5076197;28;20929;-65
2023/12/17 09:48:45;;;;;;;13.63;11.40;;;10.30;99.90;;;;;;5075995;28;20443;-65
2023/12/17 09:51:14;;;;;;;12.83;11.20;;;10.30;99.90;;;;;;5075701;28;20865;-65
2023/12/17 09:53:41;;;;;;;13.10;11.37;;;10.30;99.90;;;;;;5075840;28;20808;-65
2023/12/17 09:56:11;;;;;;;14.40;11.07;;;10.40;99.90;;;;;;5075526;28;20454;-66
2023/12/17 09:58:38;;;;;;;15.40;11.60;;;10.40;99.90;;;;;;5075398;28;20860;-65
2023/12/17 10:01:05;;;;;;;13.40;11.00;;;10.40;99.90;;;;;;5075211;28;20460;-64
2023/12/17 10:03:33;;;;;;;15.47;11.07;;;10.40;99.90;;;;;;5075761;28;20415;-65
2023/12/17 10:06:02;;;;;;;14.30;11.33;;;10.40;99.90;;;;;;5075644;28;20542;-65
2023/12/17 10:08:29;;;;;;;13.50;11.10;;;10.40;99.90;;;;;;5075390;28;20439;-65
2023/12/17 10:10:56;;;;;;;13.40;10.93;;;10.40;99.90;;;;;;5075300;28;20439;-66
2023/12/17 10:13:25;;;;;;;14.80;11.70;;;10.40;99.90;;;;;;5075512;28;20475;-67
2023/12/17 10:15:52;;;;;;;15.97;12.23;;;10.40;99.90;;;;;;5075514;28;20439;-64
2023/12/17 10:18:19;;;;;;;14.17;10.73;;;10.40;99.90;;;;;;5075607;28;20448;-65
2023/12/17 10:20:47;;;;;;;13.87;10.90;;;10.40;99.90;;;;;;5075233;28;20451;-65
2023/12/17 10:23:14;;;;;;;14.20;11.17;;;10.40;99.90;;;;;;5075075;28;20804;-64
2023/12/17 10:25:41;;;;;;;12.00;9.87;;;10.40;99.90;;;;;;5074948;28;20505;-64
2023/12/17 10:28:10;;;;;;;14.13;11.23;;;10.40;99.90;;;;;;5074604;28;20457;-64
2023/12/17 10:30:39;;;;;;;15.83;11.60;;;10.50;99.90;;;;;;5074935;28;20443;-64
2023/12/17 10:33:10;;;;;;;12.57;10.00;;;10.50;99.90;;;;;;5074688;28;20482;-65
2023/12/17 10:35:37;;;;;;;13.07;10.27;;;10.50;99.90;;;;;;5074455;28;20826;-65
2023/12/17 10:38:05;;;;;;;11.17;9.90;;;10.60;99.90;;;;;;5074897;28;20435;-65
2023/12/17 10:40:33;;;;;;;11.30;9.27;;;10.60;99.90;;;;;;5074731;28;20447;-65
2023/12/17 10:43:01;;;;;;;11.20;9.10;;;10.60;99.90;;;;;;5074733;28;20501;-65
2023/12/17 10:45:31;;;;;;;12.40;9.90;;;10.60;99.90;;;;;;5074587;28;20453;-65
2023/12/17 10:48:00;;;;;;;10.50;9.40;;;10.70;99.90;;;;;;5074461;28;20829;-64
2023/12/17 10:50:28;;;;;;;8.67;7.63;;;10.70;99.90;;;;;;5074588;28;20443;-65
2023/12/17 10:52:55;;;;;;;11.63;8.47;;;10.60;99.90;;;;;;5074563;28;20484;-65
2023/12/17 10:55:22;;;;;;;7.80;6.67;;;10.60;99.90;;;;;;5074096;28;20439;-65
2023/12/17 10:57:56;;;;;;;9.70;8.70;;;10.60;99.90;;;;;;5074352;28;20500;-65
2023/12/17 11:00:26;;;;;;;12.53;7.50;;;10.60;99.90;;;;;;5074199;28;20424;-65
2023/12/17 11:03:00;;;;;;;8.37;7.07;;;10.70;99.90;;;;;;5073826;28;20467;-65
2023/12/17 11:05:28;;;;;;;8.63;7.50;;;10.70;99.90;;;;;;5074177;28;20424;-65
2023/12/17 11:07:55;;;;;;;7.57;6.73;;;10.70;99.90;;;;;;5073844;28;20447;-65
2023/12/17 11:10:23;;;;;;;7.43;6.73;;;10.70;99.90;;;;;;5073988;28;20449;-65
2023/12/17 11:12:50;;;;;;;8.53;6.17;;;10.70;99.90;;;;;;5073905;28;20483;-64
2023/12/17 11:15:21;;;;;;;6.80;5.67;;;10.70;99.90;;;;;;5074041;28;20959;-64
2023/12/17 11:17:52;;;;;;;8.23;7.03;;;10.70;99.90;;;;;;5073911;28;20434;-66
2023/12/17 11:20:19;;;;;;;7.23;6.30;;;10.70;99.90;;;;;;5073111;28;20430;-65
2023/12/17 11:22:47;;;;;;;6.97;6.33;;;10.70;99.90;;;;;;5074336;28;20471;-65
2023/12/17 11:25:14;;;;;;;9.57;7.77;;;10.70;99.90;;;;;;5074203;28;20489;-65
2023/12/17 11:27:41;;;;;;;8.60;7.40;;;10.70;99.90;;;;;;5075004;28;20439;-65
2023/12/17 11:30:29;;;;;;;7.07;5.87;;;10.80;99.90;;;;;;5074616;28;20465;-64
2023/12/17 11:32:58;;;;;;;6.63;6.03;;;10.80;99.90;;;;;;5074824;28;20489;-64
2023/12/17 11:35:25;;;;;;;5.87;5.30;;;10.80;99.90;;;;;;5075506;28;20497;-64
2023/12/17 11:37:54;;;;;;;6.57;5.30;;;10.70;99.90;;;;;;5074822;28;20442;-65
2023/12/17 11:40:21;;;;;;;6.17;5.43;;;10.70;99.90;;;;;;5075509;28;20441;-66
2023/12/17 11:42:58;;;;;;;5.77;5.27;;;10.80;99.90;;;;;;5075927;28;20459;-66
2023/12/17 11:45:33;;;;;;;7.23;5.87;;;10.90;99.90;;;;;;5076563;28;20503;-67
2023/12/17 11:48:10;;;;;;;6.60;5.80;;;11.00;99.90;;;;;;5079493;28;20504;-67
2023/12/17 11:50:45;;;;;;;5.07;4.57;;;11.00;99.90;;;;;;5078401;28;20450;-65
2023/12/17 11:53:15;;;;;;;5.63;4.23;;;11.00;99.90;;;;;;5076499;28;20466;-67
2023/12/17 11:55:46;;;;;;;5.37;4.87;;;11.00;99.90;;;;;;5075389;28;20443;-67
2023/12/17 11:58:15;;;;;;;6.17;4.90;;;11.10;99.90;;;;;;5074955;28;20443;-66
2023/12/17 12:00:43;;;;;;;4.17;3.77;;;11.10;99.90;;;;;;5073765;28;20479;-66
2023/12/17 12:03:09;;;;;;;6.93;4.60;;;11.20;99.90;;;;;;5073658;28;20448;-65
2023/12/17 12:05:36;;;;;;;4.53;3.47;;;11.20;99.90;;;;;;5074077;28;20443;-64
2023/12/17 12:08:04;;;;;;;4.93;4.43;;;11.20;99.90;;;;;;5073709;28;20469;-65
2023/12/17 12:10:32;;;;;;;4.17;3.47;;;11.20;99.90;;;;;;5073448;28;20439;-64
2023/12/17 12:13:02;;;;;;;4.77;4.20;;;11.20;99.90;;;;;;5073370;28;20463;-64
2023/12/17 12:15:29;;;;;;;4.30;3.90;;;11.20;99.90;;;;;;5073710;28;20439;-64
2023/12/17 12:17:56;;;;;;;4.47;3.73;;;11.20;99.90;;;;;;5073979;28;20449;-64
2023/12/17 12:20:35;;;;;;;3.80;3.37;;;11.30;99.90;;;;;;5073614;28;20800;-64
2023/12/17 12:23:08;;;;;;;4.30;3.50;;;11.30;99.90;;;;;;5073617;28;20459;-64
2023/12/17 12:25:38;;;;;;;3.00;2.70;;;11.30;99.90;;;;;;5073686;28;20556;-65
2023/12/17 12:28:05;;;;;;;3.20;2.90;;;11.20;99.90;;;;;;5073222;28;20931;-65
2023/12/17 12:30:32;;;;;;;4.00;3.27;;;11.20;99.90;;;;;;5073242;28;20453;-66
2023/12/17 12:33:10;;;;;;;3.53;3.23;;;11.20;99.90;;;;;;5074796;28;20469;-64
2023/12/17 12:35:38;;;;;;;3.17;2.87;;;11.20;99.90;;;;;;5077658;28;20428;-64
2023/12/17 12:38:20;;;;;;;3.43;3.13;;;11.10;99.90;;;;;;5077049;28;20837;-65
2023/12/17 12:40:49;;;;;;;3.80;3.23;;;11.10;99.90;;;;;;5077418;28;20771;-63
2023/12/17 12:43:17;;;;;;;3.47;3.17;;;11.10;99.90;;;;;;5077686;28;20451;-64
2023/12/17 12:45:45;;;;;;;3.70;3.13;;;11.00;99.90;;;;;;5077464;28;20443;-64
2023/12/17 12:48:22;;;;;;;4.17;3.43;;;11.00;99.90;;;;;;5077581;28;20868;-64